LDPL Airport Information

Runway Information
Runway 09 Length 9678 ft width 148 ft
Elevation 169 ft Threshold 0 ft Heading 88
Runway 27 Length 9678 ft Width 148 ft
Elevation 274 ft Threshold 0 ft Heading 268
Airport Frequencies
Type APP Name APP Frequency 118.4 MHZ
Type TWR Name TWR Frequency 120 MHZ
Airport Navaids
Type NDB Name Cres Frequency 433 KHZ
Type NDB Name Kavran Frequency 265 KHZ
Type NDB Name Pula Frequency 352 KHZ
Type VOR-DME Name Pula Frequency 111250 KHZ
Airport Weather Information & NOTAM
ADDS - METARS form results

(2142 UTC 17 November 2018)
Data provider http://aviationweather.gov/metar/data/
 
METAR text: LDPL 172130Z 07018KT CAVOK 07/M02 Q1023
Conditions at: LDPL (PULA , HR) observed 2130 UTC 17 November 2018
Temperature: 7.0°C (45°F)
Dewpoint: -2.0°C (28°F) [RH = 53%]
Pressure (altimeter): 30.21 inches Hg (1023.0 mb)
Winds: from the ENE (70 degrees) at 21 MPH (18 knots; 9.3 m/s)
Visibility: 6 or more miles (10+ km)
Ceiling: ceiling and visibility are OK
Clouds: unknown
Weather: no significant weather observed at this time

METAR text: LDPL 172100Z 07022KT CAVOK 07/M02 Q1023
Conditions at: LDPL (PULA , HR) observed 2100 UTC 17 November 2018
Temperature: 7.0°C (45°F)
Dewpoint: -2.0°C (28°F) [RH = 53%]
Pressure (altimeter): 30.21 inches Hg (1023.0 mb)
Winds: from the ENE (70 degrees) at 25 MPH (22 knots; 11.3 m/s)
Visibility: 6 or more miles (10+ km)
Ceiling: ceiling and visibility are OK
Clouds: unknown
Weather: no significant weather observed at this time

Forecast for: LDPL (PULA , HR)
Text: TAF LDPL 171725Z 1718/1818 06020KT CAVOK TX09/1813Z TN05/1805Z
Forecast period: 1800 UTC 17 November 2018 to 1100 UTC 18 November 2018
Forecast type: FROM: standard forecast or significant change
Winds: from the ENE (60 degrees) at 23 MPH (20 knots; 10.3 m/s)
Visibility: 6 or more miles 10+ km)
Ceiling: unknown
Clouds: missing
Weather: no significant weather forecast for this period
Text: PROB40
Forecast period: 1800 UTC 17 November 2018 to 1000 UTC 18 November 2018
Forecast type: TEMPORARY: The following changes expected for less than half the time period
Winds: from the ENE (60 degrees) at 23 MPH (20 knots; 10.3 m/s)
gusting to 34 MPH (30 knots; 15.4 m/s)
Visibility: missing
Ceiling: unknown
Clouds: missing
Weather: no significant weather forecast for this period
Text: TEMPO 1718/1810 06020G30KT
Forecast period: 1100 to 1800 UTC 18 November 2018
Forecast type: BECOMING: Conditions expected to become as follows by 1300 UTC 18 November 2018
Winds: from the ENE (60 degrees) at 12 MPH (10 knots; 5.1 m/s)
Visibility: 6 or more miles 10+ km)
Ceiling: unknown
Clouds: missing
Weather: no significant weather forecast for this period